sensor_id;sensor_type;location;lat;lon;timestamp;P1;P2;P0
70436;PMS5003;57877;39.750;-104.894;2022-12-11T00:01:22;1;1;
70436;PMS5003;57877;39.750;-104.894;2022-12-11T00:03:48;3;3;
70436;PMS5003;57877;39.750;-104.894;2022-12-11T00:06:13;2;2;
70436;PMS5003;57877;39.750;-104.894;2022-12-11T00:08:38;3;3;
70436;PMS5003;57877;39.750;-104.894;2022-12-11T00:11:03;5;4;
70436;PMS5003;57877;39.750;-104.894;2022-12-11T00:13:28;3;2;
70436;PMS5003;57877;39.750;-104.894;2022-12-11T00:15:53;3;3;
70436;PMS5003;57877;39.750;-104.894;2022-12-11T00:18:18;4;4;
70436;PMS5003;57877;39.750;-104.894;2022-12-11T00:20:43;3;3;
70436;PMS5003;57877;39.750;-104.894;2022-12-11T00:23:08;5;5;
70436;PMS5003;57877;39.750;-104.894;2022-12-11T00:25:33;6;6;
70436;PMS5003;57877;39.750;-104.894;2022-12-11T00:27:58;4;4;
70436;PMS5003;57877;39.750;-104.894;2022-12-11T00:30:23;7;6;
70436;PMS5003;57877;39.750;-104.894;2022-12-11T00:32:50;5;5;
70436;PMS5003;57877;39.750;-104.894;2022-12-11T00:35:14;4;4;
70436;PMS5003;57877;39.750;-104.894;2022-12-11T00:37:39;4;4;
70436;PMS5003;57877;39.750;-104.894;2022-12-11T00:40:04;4;4;
70436;PMS5003;57877;39.750;-104.894;2022-12-11T00:42:29;7;7;
70436;PMS5003;57877;39.750;-104.894;2022-12-11T00:44:54;5;5;
70436;PMS5003;57877;39.750;-104.894;2022-12-11T00:47:19;18;18;
70436;PMS5003;57877;39.750;-104.894;2022-12-11T00:49:44;19;18;
70436;PMS5003;57877;39.750;-104.894;2022-12-11T00:52:09;20;19;
70436;PMS5003;57877;39.750;-104.894;2022-12-11T00:54:34;21;21;
70436;PMS5003;57877;39.750;-104.894;2022-12-11T00:56:59;17;17;
70436;PMS5003;57877;39.750;-104.894;2022-12-11T00:59:24;18;18;
70436;PMS5003;57877;39.750;-104.894;2022-12-11T01:01:50;19;16;
70436;PMS5003;57877;39.750;-104.894;2022-12-11T01:04:15;12;12;
70436;PMS5003;57877;39.750;-104.894;2022-12-11T01:06:40;20;19;
70436;PMS5003;57877;39.750;-104.894;2022-12-11T01:09:05;10;10;
70436;PMS5003;57877;39.750;-104.894;2022-12-11T01:11:30;12;11;
70436;PMS5003;57877;39.750;-104.894;2022-12-11T01:13:55;18;16;
70436;PMS5003;57877;39.750;-104.894;2022-12-11T01:16:20;17;16;
70436;PMS5003;57877;39.750;-104.894;2022-12-11T01:18:46;21;19;
70436;PMS5003;57877;39.750;-104.894;2022-12-11T01:21:12;16;13;
70436;PMS5003;57877;39.750;-104.894;2022-12-11T01:23:36;14;13;
70436;PMS5003;57877;39.750;-104.894;2022-12-11T01:26:05;16;13;
70436;PMS5003;57877;39.750;-104.894;2022-12-11T01:28:26;12;11;
70436;PMS5003;57877;39.750;-104.894;2022-12-11T01:30:51;16;15;
70436;PMS5003;57877;39.750;-104.894;2022-12-11T01:33:16;18;16;
70436;PMS5003;57877;39.750;-104.894;2022-12-11T01:35:41;19;18;
70436;PMS5003;57877;39.750;-104.894;2022-12-11T01:38:06;21;20;
70436;PMS5003;57877;39.750;-104.894;2022-12-11T01:40:31;20;19;
70436;PMS5003;57877;39.750;-104.894;2022-12-11T01:42:56;17;15;
70436;PMS5003;57877;39.750;-104.894;2022-12-11T01:45:23;16;15;
70436;PMS5003;57877;39.750;-104.894;2022-12-11T01:47:47;19;18;
70436;PMS5003;57877;39.750;-104.894;2022-12-11T01:50:12;18;17;
70436;PMS5003;57877;39.750;-104.894;2022-12-11T01:52:37;17;17;
70436;PMS5003;57877;39.750;-104.894;2022-12-11T01:55:02;18;18;
70436;PMS5003;57877;39.750;-104.894;2022-12-11T01:57:27;25;24;
70436;PMS5003;57877;39.750;-104.894;2022-12-11T01:59:52;24;24;
70436;PMS5003;57877;39.750;-104.894;2022-12-11T02:02:18;24;23;
70436;PMS5003;57877;39.750;-104.894;2022-12-11T02:04:43;24;23;
70436;PMS5003;57877;39.750;-104.894;2022-12-11T02:07:08;23;21;
70436;PMS5003;57877;39.750;-104.894;2022-12-11T02:09:33;26;23;
70436;PMS5003;57877;39.750;-104.894;2022-12-11T02:11:59;20;18;
70436;PMS5003;57877;39.750;-104.894;2022-12-11T02:14:26;23;22;
70436;PMS5003;57877;39.750;-104.894;2022-12-11T02:16:49;23;23;
70436;PMS5003;57877;39.750;-104.894;2022-12-11T02:19:17;26;23;
70436;PMS5003;57877;39.750;-104.894;2022-12-11T02:21:39;31;28;
70436;PMS5003;57877;39.750;-104.894;2022-12-11T02:26:33;34;33;
70436;PMS5003;57877;39.750;-104.894;2022-12-11T02:28:54;36;36;
70436;PMS5003;57877;39.750;-104.894;2022-12-11T02:31:20;40;35;
70436;PMS5003;57877;39.750;-104.894;2022-12-11T02:33:44;33;32;
70436;PMS5003;57877;39.750;-104.894;2022-12-11T02:36:09;32;32;
70436;PMS5003;57877;39.750;-104.894;2022-12-11T02:38:35;32;30;
70436;PMS5003;57877;39.750;-104.894;2022-12-11T02:41:00;33;31;
70436;PMS5003;57877;39.750;-104.894;2022-12-11T02:43:25;34;31;
70436;PMS5003;57877;39.750;-104.894;2022-12-11T02:45:50;36;34;
70436;PMS5003;57877;39.750;-104.894;2022-12-11T02:48:15;39;36;
70436;PMS5003;57877;39.750;-104.894;2022-12-11T02:50:41;35;33;
70436;PMS5003;57877;39.750;-104.894;2022-12-11T02:53:05;30;29;
70436;PMS5003;57877;39.750;-104.894;2022-12-11T02:55:30;27;26;
70436;PMS5003;57877;39.750;-104.894;2022-12-11T02:57:56;27;24;
70436;PMS5003;57877;39.750;-104.894;2022-12-11T03:00:20;28;26;
70436;PMS5003;57877;39.750;-104.894;2022-12-11T03:02:46;19;17;
70436;PMS5003;57877;39.750;-104.894;2022-12-11T03:05:11;15;11;
70436;PMS5003;57877;39.750;-104.894;2022-12-11T03:07:36;17;15;
70436;PMS5003;57877;39.750;-104.894;2022-12-11T03:10:02;17;16;
70436;PMS5003;57877;39.750;-104.894;2022-12-11T03:12:27;20;18;
70436;PMS5003;57877;39.750;-104.894;2022-12-11T03:14:51;23;21;
70436;PMS5003;57877;39.750;-104.894;2022-12-11T03:17:17;22;19;
70436;PMS5003;57877;39.750;-104.894;2022-12-11T03:19:44;20;19;
70436;PMS5003;57877;39.750;-104.894;2022-12-11T03:22:08;18;18;
70436;PMS5003;57877;39.750;-104.894;2022-12-11T03:24:33;19;18;
70436;PMS5003;57877;39.750;-104.894;2022-12-11T03:26:58;20;19;
70436;PMS5003;57877;39.750;-104.894;2022-12-11T03:29:23;18;16;
70436;PMS5003;57877;39.750;-104.894;2022-12-11T03:31:49;18;15;
70436;PMS5003;57877;39.750;-104.894;2022-12-11T03:34:14;17;17;
70436;PMS5003;57877;39.750;-104.894;2022-12-11T03:36:38;12;12;
70436;PMS5003;57877;39.750;-104.894;2022-12-11T03:39:04;9;8;
70436;PMS5003;57877;39.750;-104.894;2022-12-11T03:41:28;9;9;
70436;PMS5003;57877;39.750;-104.894;2022-12-11T03:43:55;10;9;
70436;PMS5003;57877;39.750;-104.894;2022-12-11T03:46:18;9;9;
70436;PMS5003;57877;39.750;-104.894;2022-12-11T03:48:43;11;9;
70436;PMS5003;57877;39.750;-104.894;2022-12-11T03:51:09;8;8;
70436;PMS5003;57877;39.750;-104.894;2022-12-11T03:53:34;8;8;
70436;PMS5003;57877;39.750;-104.894;2022-12-11T03:55:59;5;5;
70436;PMS5003;57877;39.750;-104.894;2022-12-11T03:58:24;8;8;
70436;PMS5003;57877;39.750;-104.894;2022-12-11T04:00:49;5;4;
70436;PMS5003;57877;39.750;-104.894;2022-12-11T04:03:14;4;3;
70436;PMS5003;57877;39.750;-104.894;2022-12-11T04:05:40;5;5;
70436;PMS5003;57877;39.750;-104.894;2022-12-11T04:08:05;5;5;
70436;PMS5003;57877;39.750;-104.894;2022-12-11T04:10:30;5;5;
70436;PMS5003;57877;39.750;-104.894;2022-12-11T04:12:55;5;4;
70436;PMS5003;57877;39.750;-104.894;2022-12-11T04:15:20;4;4;
70436;PMS5003;57877;39.750;-104.894;2022-12-11T04:17:45;3;3;
70436;PMS5003;57877;39.750;-104.894;2022-12-11T04:20:11;5;5;
70436;PMS5003;57877;39.750;-104.894;2022-12-11T04:22:35;5;5;
70436;PMS5003;57877;39.750;-104.894;2022-12-11T04:25:01;6;5;
70436;PMS5003;57877;39.750;-104.894;2022-12-11T04:27:26;5;5;
70436;PMS5003;57877;39.750;-104.894;2022-12-11T04:29:51;5;5;
70436;PMS5003;57877;39.750;-104.894;2022-12-11T04:32:16;5;5;
70436;PMS5003;57877;39.750;-104.894;2022-12-11T04:34:41;7;7;
70436;PMS5003;57877;39.750;-104.894;2022-12-11T04:37:07;6;6;
70436;PMS5003;57877;39.750;-104.894;2022-12-11T04:39:32;6;6;
70436;PMS5003;57877;39.750;-104.894;2022-12-11T04:41:57;9;8;
70436;PMS5003;57877;39.750;-104.894;2022-12-11T04:44:22;8;7;
70436;PMS5003;57877;39.750;-104.894;2022-12-11T04:46:47;9;9;
70436;PMS5003;57877;39.750;-104.894;2022-12-11T04:49:12;8;7;
70436;PMS5003;57877;39.750;-104.894;2022-12-11T04:51:37;9;7;
70436;PMS5003;57877;39.750;-104.894;2022-12-11T04:54:03;8;7;
70436;PMS5003;57877;39.750;-104.894;2022-12-11T04:56:28;7;7;
70436;PMS5003;57877;39.750;-104.894;2022-12-11T04:58:53;8;7;
70436;PMS5003;57877;39.750;-104.894;2022-12-11T05:01:19;9;9;
70436;PMS5003;57877;39.750;-104.894;2022-12-11T05:03:43;9;8;
70436;PMS5003;57877;39.750;-104.894;2022-12-11T05:06:09;11;10;
70436;PMS5003;57877;39.750;-104.894;2022-12-11T05:08:34;8;8;
70436;PMS5003;57877;39.750;-104.894;2022-12-11T05:11:01;10;9;
70436;PMS5003;57877;39.750;-104.894;2022-12-11T05:13:25;8;8;
70436;PMS5003;57877;39.750;-104.894;2022-12-11T05:15:49;12;10;
70436;PMS5003;57877;39.750;-104.894;2022-12-11T05:18:14;15;13;
70436;PMS5003;57877;39.750;-104.894;2022-12-11T05:20:40;15;13;
70436;PMS5003;57877;39.750;-104.894;2022-12-11T05:23:05;15;13;
70436;PMS5003;57877;39.750;-104.894;2022-12-11T05:25:30;10;10;
70436;PMS5003;57877;39.750;-104.894;2022-12-11T05:27:55;13;12;
70436;PMS5003;57877;39.750;-104.894;2022-12-11T05:30:20;11;9;
70436;PMS5003;57877;39.750;-104.894;2022-12-11T05:32:45;10;9;
70436;PMS5003;57877;39.750;-104.894;2022-12-11T05:35:11;15;13;
70436;PMS5003;57877;39.750;-104.894;2022-12-11T05:37:36;11;8;
70436;PMS5003;57877;39.750;-104.894;2022-12-11T05:40:01;11;9;
70436;PMS5003;57877;39.750;-104.894;2022-12-11T05:42:26;15;13;
70436;PMS5003;57877;39.750;-104.894;2022-12-11T05:44:51;7;7;
70436;PMS5003;57877;39.750;-104.894;2022-12-11T05:47:17;9;8;
70436;PMS5003;57877;39.750;-104.894;2022-12-11T05:49:42;8;8;
70436;PMS5003;57877;39.750;-104.894;2022-12-11T05:52:07;12;12;
70436;PMS5003;57877;39.750;-104.894;2022-12-11T05:54:32;6;6;
70436;PMS5003;57877;39.750;-104.894;2022-12-11T05:56:57;7;6;
70436;PMS5003;57877;39.750;-104.894;2022-12-11T05:59:23;3;3;
70436;PMS5003;57877;39.750;-104.894;2022-12-11T06:01:48;2;1;
70436;PMS5003;57877;39.750;-104.894;2022-12-11T06:04:13;0;0;
70436;PMS5003;57877;39.750;-104.894;2022-12-11T06:06:38;2;2;
70436;PMS5003;57877;39.750;-104.894;2022-12-11T06:09:04;3;3;
70436;PMS5003;57877;39.750;-104.894;2022-12-11T06:11:29;4;4;
70436;PMS5003;57877;39.750;-104.894;2022-12-11T06:13:54;3;3;
70436;PMS5003;57877;39.750;-104.894;2022-12-11T06:16:19;3;3;
70436;PMS5003;57877;39.750;-104.894;2022-12-11T06:18:44;3;3;
70436;PMS5003;57877;39.750;-104.894;2022-12-11T06:21:10;3;3;
70436;PMS5003;57877;39.750;-104.894;2022-12-11T06:23:34;2;2;
70436;PMS5003;57877;39.750;-104.894;2022-12-11T06:26:00;4;3;
70436;PMS5003;57877;39.750;-104.894;2022-12-11T06:28:25;3;2;
70436;PMS5003;57877;39.750;-104.894;2022-12-11T06:30:50;1;1;
70436;PMS5003;57877;39.750;-104.894;2022-12-11T06:33:15;5;4;
70436;PMS5003;57877;39.750;-104.894;2022-12-11T06:35:40;5;4;
70436;PMS5003;57877;39.750;-104.894;2022-12-11T06:38:05;6;6;
70436;PMS5003;57877;39.750;-104.894;2022-12-11T06:40:31;6;6;
70436;PMS5003;57877;39.750;-104.894;2022-12-11T06:42:56;6;6;
70436;PMS5003;57877;39.750;-104.894;2022-12-11T06:45:21;14;13;
70436;PMS5003;57877;39.750;-104.894;2022-12-11T06:47:46;14;12;
70436;PMS5003;57877;39.750;-104.894;2022-12-11T06:50:11;13;10;
70436;PMS5003;57877;39.750;-104.894;2022-12-11T06:52:36;10;7;
70436;PMS5003;57877;39.750;-104.894;2022-12-11T06:55:02;11;10;
70436;PMS5003;57877;39.750;-104.894;2022-12-11T06:57:27;14;14;
70436;PMS5003;57877;39.750;-104.894;2022-12-11T06:59:52;17;12;
70436;PMS5003;57877;39.750;-104.894;2022-12-11T07:02:18;14;14;
70436;PMS5003;57877;39.750;-104.894;2022-12-11T07:04:42;13;10;
70436;PMS5003;57877;39.750;-104.894;2022-12-11T07:07:08;19;18;
70436;PMS5003;57877;39.750;-104.894;2022-12-11T07:09:32;17;15;
70436;PMS5003;57877;39.750;-104.894;2022-12-11T07:11:57;14;14;
70436;PMS5003;57877;39.750;-104.894;2022-12-11T07:14:23;19;18;
70436;PMS5003;57877;39.750;-104.894;2022-12-11T07:16:48;22;20;
70436;PMS5003;57877;39.750;-104.894;2022-12-11T07:19:13;21;20;
70436;PMS5003;57877;39.750;-104.894;2022-12-11T07:21:38;17;17;
70436;PMS5003;57877;39.750;-104.894;2022-12-11T07:24:04;22;22;
70436;PMS5003;57877;39.750;-104.894;2022-12-11T07:26:28;20;19;
70436;PMS5003;57877;39.750;-104.894;2022-12-11T07:28:55;19;17;
70436;PMS5003;57877;39.750;-104.894;2022-12-11T07:31:20;18;17;
70436;PMS5003;57877;39.750;-104.894;2022-12-11T07:33:44;18;17;
70436;PMS5003;57877;39.750;-104.894;2022-12-11T07:36:10;20;19;
70436;PMS5003;57877;39.750;-104.894;2022-12-11T07:38:35;18;18;
70436;PMS5003;57877;39.750;-104.894;2022-12-11T07:41:00;18;18;
70436;PMS5003;57877;39.750;-104.894;2022-12-11T07:43:25;20;19;
70436;PMS5003;57877;39.750;-104.894;2022-12-11T07:45:50;19;18;
70436;PMS5003;57877;39.750;-104.894;2022-12-11T07:48:15;20;18;
70436;PMS5003;57877;39.750;-104.894;2022-12-11T07:50:40;19;17;
70436;PMS5003;57877;39.750;-104.894;2022-12-11T07:53:05;18;17;
70436;PMS5003;57877;39.750;-104.894;2022-12-11T07:55:31;17;16;
70436;PMS5003;57877;39.750;-104.894;2022-12-11T07:57:56;19;18;
70436;PMS5003;57877;39.750;-104.894;2022-12-11T08:00:28;20;18;
70436;PMS5003;57877;39.750;-104.894;2022-12-11T08:02:46;19;18;
70436;PMS5003;57877;39.750;-104.894;2022-12-11T08:05:11;18;17;
70436;PMS5003;57877;39.750;-104.894;2022-12-11T08:07:37;20;20;
70436;PMS5003;57877;39.750;-104.894;2022-12-11T08:10:02;17;17;
70436;PMS5003;57877;39.750;-104.894;2022-12-11T08:12:27;20;19;
70436;PMS5003;57877;39.750;-104.894;2022-12-11T08:14:52;18;17;
70436;PMS5003;57877;39.750;-104.894;2022-12-11T08:17:18;18;17;
70436;PMS5003;57877;39.750;-104.894;2022-12-11T08:19:43;19;17;
70436;PMS5003;57877;39.750;-104.894;2022-12-11T08:22:08;18;17;
70436;PMS5003;57877;39.750;-104.894;2022-12-11T08:24:33;16;15;
70436;PMS5003;57877;39.750;-104.894;2022-12-11T08:26:58;17;15;
70436;PMS5003;57877;39.750;-104.894;2022-12-11T08:29:23;20;19;
70436;PMS5003;57877;39.750;-104.894;2022-12-11T08:31:49;19;18;
70436;PMS5003;57877;39.750;-104.894;2022-12-11T08:34:14;17;17;
70436;PMS5003;57877;39.750;-104.894;2022-12-11T08:36:39;18;18;
70436;PMS5003;57877;39.750;-104.894;2022-12-11T08:39:04;19;18;
70436;PMS5003;57877;39.750;-104.894;2022-12-11T08:41:29;20;19;
70436;PMS5003;57877;39.750;-104.894;2022-12-11T08:43:55;20;18;
70436;PMS5003;57877;39.750;-104.894;2022-12-11T08:46:20;18;16;
70436;PMS5003;57877;39.750;-104.894;2022-12-11T08:48:47;19;17;
70436;PMS5003;57877;39.750;-104.894;2022-12-11T08:51:11;18;18;
70436;PMS5003;57877;39.750;-104.894;2022-12-11T08:53:35;21;19;
70436;PMS5003;57877;39.750;-104.894;2022-12-11T08:56:01;18;16;
70436;PMS5003;57877;39.750;-104.894;2022-12-11T08:58:26;19;19;
70436;PMS5003;57877;39.750;-104.894;2022-12-11T09:00:51;19;18;
70436;PMS5003;57877;39.750;-104.894;2022-12-11T09:03:16;19;19;
70436;PMS5003;57877;39.750;-104.894;2022-12-11T09:05:41;20;19;
70436;PMS5003;57877;39.750;-104.894;2022-12-11T09:08:06;18;18;
70436;PMS5003;57877;39.750;-104.894;2022-12-11T09:10:31;19;18;
70436;PMS5003;57877;39.750;-104.894;2022-12-11T09:12:57;16;15;
70436;PMS5003;57877;39.750;-104.894;2022-12-11T09:15:22;20;19;
70436;PMS5003;57877;39.750;-104.894;2022-12-11T09:17:47;23;22;
70436;PMS5003;57877;39.750;-104.894;2022-12-11T09:20:12;19;19;
70436;PMS5003;57877;39.750;-104.894;2022-12-11T09:22:38;19;17;
70436;PMS5003;57877;39.750;-104.894;2022-12-11T09:25:03;17;17;
70436;PMS5003;57877;39.750;-104.894;2022-12-11T09:27:28;15;14;
70436;PMS5003;57877;39.750;-104.894;2022-12-11T09:29:53;16;15;
70436;PMS5003;57877;39.750;-104.894;2022-12-11T09:32:18;10;10;
70436;PMS5003;57877;39.750;-104.894;2022-12-11T09:34:43;15;14;
70436;PMS5003;57877;39.750;-104.894;2022-12-11T09:37:08;12;11;
70436;PMS5003;57877;39.750;-104.894;2022-12-11T09:39:34;14;14;
70436;PMS5003;57877;39.750;-104.894;2022-12-11T09:42:00;12;11;
70436;PMS5003;57877;39.750;-104.894;2022-12-11T09:46:49;16;12;
70436;PMS5003;57877;39.750;-104.894;2022-12-11T09:49:19;9;9;
70436;PMS5003;57877;39.750;-104.894;2022-12-11T09:51:41;8;8;
70436;PMS5003;57877;39.750;-104.894;2022-12-11T09:54:05;9;8;
70436;PMS5003;57877;39.750;-104.894;2022-12-11T09:56:31;6;6;
70436;PMS5003;57877;39.750;-104.894;2022-12-11T09:58:58;7;7;
70436;PMS5003;57877;39.750;-104.894;2022-12-11T10:01:22;9;9;
70436;PMS5003;57877;39.750;-104.894;2022-12-11T10:03:49;16;14;
70436;PMS5003;57877;39.750;-104.894;2022-12-11T10:06:13;20;18;
70436;PMS5003;57877;39.750;-104.894;2022-12-11T10:08:39;16;15;
70436;PMS5003;57877;39.750;-104.894;2022-12-11T10:13:28;15;14;
70436;PMS5003;57877;39.750;-104.894;2022-12-11T10:15:53;18;18;
70436;PMS5003;57877;39.750;-104.894;2022-12-11T10:18:18;17;17;
70436;PMS5003;57877;39.750;-104.894;2022-12-11T10:20:42;17;15;
70436;PMS5003;57877;39.750;-104.894;2022-12-11T10:23:08;16;16;
70436;PMS5003;57877;39.750;-104.894;2022-12-11T10:25:33;20;20;
70436;PMS5003;57877;39.750;-104.894;2022-12-11T10:27:59;18;18;
70436;PMS5003;57877;39.750;-104.894;2022-12-11T10:30:23;17;15;
70436;PMS5003;57877;39.750;-104.894;2022-12-11T10:32:50;16;15;
70436;PMS5003;57877;39.750;-104.894;2022-12-11T10:35:16;13;12;
70436;PMS5003;57877;39.750;-104.894;2022-12-11T10:37:38;11;8;
70436;PMS5003;57877;39.750;-104.894;2022-12-11T10:40:04;12;11;
70436;PMS5003;57877;39.750;-104.894;2022-12-11T10:42:29;8;8;
70436;PMS5003;57877;39.750;-104.894;2022-12-11T10:44:54;4;4;
70436;PMS5003;57877;39.750;-104.894;2022-12-11T10:47:19;4;4;
70436;PMS5003;57877;39.750;-104.894;2022-12-11T10:49:51;5;4;
70436;PMS5003;57877;39.750;-104.894;2022-12-11T10:52:10;4;4;
70436;PMS5003;57877;39.750;-104.894;2022-12-11T10:54:35;2;2;
70436;PMS5003;57877;39.750;-104.894;2022-12-11T10:57:00;2;2;
70436;PMS5003;57877;39.750;-104.894;2022-12-11T10:59:26;3;2;
70436;PMS5003;57877;39.750;-104.894;2022-12-11T11:01:50;2;2;
70436;PMS5003;57877;39.750;-104.894;2022-12-11T11:04:18;3;2;
70436;PMS5003;57877;39.750;-104.894;2022-12-11T11:06:40;4;3;
70436;PMS5003;57877;39.750;-104.894;2022-12-11T11:11:32;0;0;
70436;PMS5003;57877;39.750;-104.894;2022-12-11T11:16:21;0;0;
70436;PMS5003;57877;39.750;-104.894;2022-12-11T11:18:49;0;0;
70436;PMS5003;57877;39.750;-104.894;2022-12-11T11:21:14;2;2;
70436;PMS5003;57877;39.750;-104.894;2022-12-11T11:23:36;2;2;
70436;PMS5003;57877;39.750;-104.894;2022-12-11T11:26:02;0;0;
70436;PMS5003;57877;39.750;-104.894;2022-12-11T11:28:27;2;0;
70436;PMS5003;57877;39.750;-104.894;2022-12-11T11:30:56;3;2;
70436;PMS5003;57877;39.750;-104.894;2022-12-11T11:33:17;1;1;
70436;PMS5003;57877;39.750;-104.894;2022-12-11T11:38:12;2;1;
70436;PMS5003;57877;39.750;-104.894;2022-12-11T11:40:33;3;2;
70436;PMS5003;57877;39.750;-104.894;2022-12-11T11:43:02;1;1;
70436;PMS5003;57877;39.750;-104.894;2022-12-11T11:45:23;1;1;
70436;PMS5003;57877;39.750;-104.894;2022-12-11T11:47:50;0;0;
70436;PMS5003;57877;39.750;-104.894;2022-12-11T11:50:14;0;0;
70436;PMS5003;57877;39.750;-104.894;2022-12-11T11:52:39;0;0;
70436;PMS5003;57877;39.750;-104.894;2022-12-11T11:55:05;0;0;
70436;PMS5003;57877;39.750;-104.894;2022-12-11T11:57:31;1;1;
70436;PMS5003;57877;39.750;-104.894;2022-12-11T11:59:54;0;0;
70436;PMS5003;57877;39.750;-104.894;2022-12-11T12:02:19;0;0;
70436;PMS5003;57877;39.750;-104.894;2022-12-11T12:04:44;0;0;
70436;PMS5003;57877;39.750;-104.894;2022-12-11T12:07:12;1;0;
70436;PMS5003;57877;39.750;-104.894;2022-12-11T12:09:37;0;0;
70436;PMS5003;57877;39.750;-104.894;2022-12-11T12:12:02;0;0;
70436;PMS5003;57877;39.750;-104.894;2022-12-11T12:14:30;0;0;
70436;PMS5003;57877;39.750;-104.894;2022-12-11T12:16:52;0;0;
70436;PMS5003;57877;39.750;-104.894;2022-12-11T12:19:18;0;0;
70436;PMS5003;57877;39.750;-104.894;2022-12-11T12:21:41;0;0;
70436;PMS5003;57877;39.750;-104.894;2022-12-11T12:24:08;0;0;
70436;PMS5003;57877;39.750;-104.894;2022-12-11T12:26:31;0;0;
70436;PMS5003;57877;39.750;-104.894;2022-12-11T12:28:59;0;0;
70436;PMS5003;57877;39.750;-104.894;2022-12-11T12:31:26;0;0;
70436;PMS5003;57877;39.750;-104.894;2022-12-11T12:33:48;0;0;
70436;PMS5003;57877;39.750;-104.894;2022-12-11T12:36:14;0;0;
70436;PMS5003;57877;39.750;-104.894;2022-12-11T12:38:38;1;0;
70436;PMS5003;57877;39.750;-104.894;2022-12-11T12:41:02;0;0;
70436;PMS5003;57877;39.750;-104.894;2022-12-11T12:43:33;0;0;
70436;PMS5003;57877;39.750;-104.894;2022-12-11T12:45:52;0;0;
70436;PMS5003;57877;39.750;-104.894;2022-12-11T12:48:17;0;0;
70436;PMS5003;57877;39.750;-104.894;2022-12-11T12:50:42;0;0;
70436;PMS5003;57877;39.750;-104.894;2022-12-11T12:53:08;0;0;
70436;PMS5003;57877;39.750;-104.894;2022-12-11T12:55:32;0;0;
70436;PMS5003;57877;39.750;-104.894;2022-12-11T12:57:58;0;0;
70436;PMS5003;57877;39.750;-104.894;2022-12-11T13:02:48;0;0;
70436;PMS5003;57877;39.750;-104.894;2022-12-11T13:05:18;0;0;
70436;PMS5003;57877;39.750;-104.894;2022-12-11T13:07:38;0;0;
70436;PMS5003;57877;39.750;-104.894;2022-12-11T13:10:05;0;0;
70436;PMS5003;57877;39.750;-104.894;2022-12-11T13:14:55;0;0;
70436;PMS5003;57877;39.750;-104.894;2022-12-11T13:17:24;0;0;
70436;PMS5003;57877;39.750;-104.894;2022-12-11T13:19:44;0;0;
70436;PMS5003;57877;39.750;-104.894;2022-12-11T13:24:43;0;0;
70436;PMS5003;57877;39.750;-104.894;2022-12-11T13:29:29;0;0;
70436;PMS5003;57877;39.750;-104.894;2022-12-11T13:31:55;0;0;
70436;PMS5003;57877;39.750;-104.894;2022-12-11T13:34:16;0;0;
70436;PMS5003;57877;39.750;-104.894;2022-12-11T13:36:40;0;0;
70436;PMS5003;57877;39.750;-104.894;2022-12-11T13:39:07;0;0;
70436;PMS5003;57877;39.750;-104.894;2022-12-11T13:41:33;0;0;
70436;PMS5003;57877;39.750;-104.894;2022-12-11T13:43:56;0;0;
70436;PMS5003;57877;39.750;-104.894;2022-12-11T13:46:22;0;0;
70436;PMS5003;57877;39.750;-104.894;2022-12-11T13:48:47;0;0;
70436;PMS5003;57877;39.750;-104.894;2022-12-11T13:51:12;0;0;
70436;PMS5003;57877;39.750;-104.894;2022-12-11T13:53:36;0;0;
70436;PMS5003;57877;39.750;-104.894;2022-12-11T13:56:03;0;0;
70436;PMS5003;57877;39.750;-104.894;2022-12-11T13:58:27;0;0;
70436;PMS5003;57877;39.750;-104.894;2022-12-11T14:00:56;0;0;
70436;PMS5003;57877;39.750;-104.894;2022-12-11T14:03:17;0;0;
70436;PMS5003;57877;39.750;-104.894;2022-12-11T14:05:42;0;0;
70436;PMS5003;57877;39.750;-104.894;2022-12-11T14:08:07;0;0;
70436;PMS5003;57877;39.750;-104.894;2022-12-11T14:10:32;0;0;
70436;PMS5003;57877;39.750;-104.894;2022-12-11T14:12:59;0;0;
70436;PMS5003;57877;39.750;-104.894;2022-12-11T14:15:23;0;0;
70436;PMS5003;57877;39.750;-104.894;2022-12-11T14:17:48;0;0;
70436;PMS5003;57877;39.750;-104.894;2022-12-11T14:20:15;0;0;
70436;PMS5003;57877;39.750;-104.894;2022-12-11T14:22:38;0;0;
70436;PMS5003;57877;39.750;-104.894;2022-12-11T14:27:28;0;0;
70436;PMS5003;57877;39.750;-104.894;2022-12-11T14:29:54;0;0;
70436;PMS5003;57877;39.750;-104.894;2022-12-11T14:32:29;0;0;
70436;PMS5003;57877;39.750;-104.894;2022-12-11T14:34:44;0;0;
70436;PMS5003;57877;39.750;-104.894;2022-12-11T14:37:09;0;0;
70436;PMS5003;57877;39.750;-104.894;2022-12-11T14:39:35;0;0;
70436;PMS5003;57877;39.750;-104.894;2022-12-11T14:42:00;0;0;
70436;PMS5003;57877;39.750;-104.894;2022-12-11T14:44:24;0;0;
70436;PMS5003;57877;39.750;-104.894;2022-12-11T14:46:50;0;0;
70436;PMS5003;57877;39.750;-104.894;2022-12-11T14:49:16;0;0;
70436;PMS5003;57877;39.750;-104.894;2022-12-11T14:51:39;0;0;
70436;PMS5003;57877;39.750;-104.894;2022-12-11T14:54:05;0;0;
70436;PMS5003;57877;39.750;-104.894;2022-12-11T14:56:30;0;0;
70436;PMS5003;57877;39.750;-104.894;2022-12-11T14:58:56;0;0;
70436;PMS5003;57877;39.750;-104.894;2022-12-11T15:01:21;0;0;
70436;PMS5003;57877;39.750;-104.894;2022-12-11T15:03:45;0;0;
70436;PMS5003;57877;39.750;-104.894;2022-12-11T15:08:35;0;0;
70436;PMS5003;57877;39.750;-104.894;2022-12-11T15:11:02;0;0;
70436;PMS5003;57877;39.750;-104.894;2022-12-11T15:13:25;0;0;
70436;PMS5003;57877;39.750;-104.894;2022-12-11T15:15:51;0;0;
70436;PMS5003;57877;39.750;-104.894;2022-12-11T15:18:17;0;0;
70436;PMS5003;57877;39.750;-104.894;2022-12-11T15:20:41;0;0;
70436;PMS5003;57877;39.750;-104.894;2022-12-11T15:23:06;0;0;
70436;PMS5003;57877;39.750;-104.894;2022-12-11T15:25:31;0;0;
70436;PMS5003;57877;39.750;-104.894;2022-12-11T15:27:57;0;0;
70436;PMS5003;57877;39.750;-104.894;2022-12-11T15:30:25;0;0;
70436;PMS5003;57877;39.750;-104.894;2022-12-11T15:32:46;0;0;
70436;PMS5003;57877;39.750;-104.894;2022-12-11T15:37:36;0;0;
70436;PMS5003;57877;39.750;-104.894;2022-12-11T15:40:02;0;0;
70436;PMS5003;57877;39.750;-104.894;2022-12-11T15:42:28;0;0;
70436;PMS5003;57877;39.750;-104.894;2022-12-11T15:44:52;0;0;
70436;PMS5003;57877;39.750;-104.894;2022-12-11T15:47:18;0;0;
70436;PMS5003;57877;39.750;-104.894;2022-12-11T15:49:42;0;0;
70436;PMS5003;57877;39.750;-104.894;2022-12-11T15:52:07;0;0;
70436;PMS5003;57877;39.750;-104.894;2022-12-11T15:54:32;0;0;
70436;PMS5003;57877;39.750;-104.894;2022-12-11T15:56:57;0;0;
70436;PMS5003;57877;39.750;-104.894;2022-12-11T15:59:22;0;0;
70436;PMS5003;57877;39.750;-104.894;2022-12-11T16:01:47;0;0;
70436;PMS5003;57877;39.750;-104.894;2022-12-11T16:04:12;0;0;